Time;durP1;ratioP1;P1;durP2;ratioP2;P2;SDS_P1;SDS_P2;PMS_P1;PMS_P2;Temp;Humidity;BMP_temperature;BMP_pressure;BME280_temperature;BME280_humidity;BME280_pressure;Samples;Min_cycle;Max_cycle;Signal;HPM_P1;HPM_P2
2022/05/04 00:00:59;;;;;;;6.85;6.28;;;11.60;99.90;;;;;;4931793;29;20115;-74
2022/05/04 00:03:24;;;;;;;6.88;6.18;;;11.60;99.90;;;;;;4933340;29;20079;-74
2022/05/04 00:05:50;;;;;;;7.47;6.88;;;11.60;99.90;;;;;;4932828;29;20083;-74
2022/05/04 00:08:16;;;;;;;8.32;6.32;;;11.60;99.90;;;;;;4933302;29;20070;-74
2022/05/04 00:10:41;;;;;;;7.47;6.50;;;11.60;99.90;;;;;;4934069;29;20483;-75
2022/05/04 00:13:07;;;;;;;6.35;5.78;;;11.50;99.90;;;;;;4934685;29;20529;-73
2022/05/04 00:15:33;;;;;;;7.32;6.63;;;11.50;99.90;;;;;;4930498;29;20043;-74
2022/05/04 00:17:58;;;;;;;6.95;6.20;;;11.50;99.90;;;;;;4934218;29;20031;-74
2022/05/04 00:20:24;;;;;;;8.95;6.95;;;11.50;99.90;;;;;;4932096;29;20039;-74
2022/05/04 00:22:49;;;;;;;7.15;6.45;;;11.40;99.90;;;;;;4934339;29;20502;-75
2022/05/04 00:25:15;;;;;;;8.32;7.47;;;11.40;99.90;;;;;;4931891;29;20032;-74
2022/05/04 00:27:40;;;;;;;8.00;6.40;;;11.40;99.90;;;;;;4932249;29;20028;-75
2022/05/04 00:30:06;;;;;;;7.60;6.43;;;11.40;99.90;;;;;;4934203;29;20108;-75
2022/05/04 00:32:32;;;;;;;10.13;7.03;;;11.30;99.90;;;;;;4932478;29;20372;-76
2022/05/04 00:34:58;;;;;;;8.68;6.35;;;11.30;99.90;;;;;;4933646;29;20019;-76
2022/05/04 00:37:24;;;;;;;6.63;6.03;;;11.30;99.90;;;;;;4933659;29;20031;-73
2022/05/04 00:39:49;;;;;;;9.13;6.30;;;11.20;99.90;;;;;;4933324;28;20102;-74
2022/05/04 00:42:17;;;;;;;6.93;6.22;;;11.20;99.90;;;;;;4936816;29;20053;-74
2022/05/04 00:44:47;;;;;;;8.20;6.63;;;11.20;99.90;;;;;;4936086;29;20034;-74
2022/05/04 00:47:14;;;;;;;9.43;7.23;;;11.10;99.90;;;;;;4937103;29;20024;-74
2022/05/04 00:49:40;;;;;;;8.45;6.32;;;11.10;99.90;;;;;;4938401;29;20929;-75
2022/05/04 00:52:08;;;;;;;11.60;7.25;;;11.00;99.90;;;;;;4934973;29;20099;-75
2022/05/04 00:54:35;;;;;;;11.35;6.88;;;11.00;99.90;;;;;;4929730;29;20500;-75
2022/05/04 00:57:02;;;;;;;7.20;6.50;;;10.90;99.90;;;;;;4934941;29;20388;-75
2022/05/04 00:59:30;;;;;;;11.75;7.50;;;10.90;99.90;;;;;;4936822;29;20035;-74
2022/05/04 01:01:56;;;;;;;7.22;6.50;;;10.90;99.90;;;;;;4936438;29;20075;-75
2022/05/04 01:04:22;;;;;;;6.93;6.22;;;10.90;99.90;;;;;;4937838;29;20412;-74
2022/05/04 01:06:48;;;;;;;7.88;7.18;;;10.90;99.90;;;;;;4935816;29;20028;-74
2022/05/04 01:09:14;;;;;;;7.10;6.47;;;10.90;99.90;;;;;;4936843;29;20411;-74
2022/05/04 01:11:40;;;;;;;9.98;6.07;;;10.80;99.90;;;;;;4937090;29;20511;-75
2022/05/04 01:14:08;;;;;;;9.15;6.32;;;10.80;99.90;;;;;;4936947;29;20035;-75
2022/05/04 01:16:35;;;;;;;7.45;6.75;;;10.80;99.90;;;;;;4935609;29;20031;-74
2022/05/04 01:19:01;;;;;;;7.38;6.35;;;10.80;99.90;;;;;;4937431;29;20110;-75
2022/05/04 01:21:26;;;;;;;7.90;7.20;;;10.80;99.90;;;;;;4934698;29;20059;-74
2022/05/04 01:23:54;;;;;;;7.22;6.57;;;10.90;99.90;;;;;;4937670;29;20032;-75
2022/05/04 01:26:20;;;;;;;7.03;6.43;;;10.90;99.90;;;;;;4935691;29;20520;-75
2022/05/04 01:28:46;;;;;;;7.05;6.35;;;10.90;99.90;;;;;;4936853;29;20031;-74
2022/05/04 01:31:12;;;;;;;7.80;6.10;;;10.90;99.90;;;;;;4936875;29;20052;-74
2022/05/04 01:33:38;;;;;;;7.28;6.60;;;10.90;99.90;;;;;;4935579;29;20028;-75
2022/05/04 01:36:05;;;;;;;6.72;6.15;;;10.90;99.90;;;;;;4936565;29;20070;-74
2022/05/04 01:38:30;;;;;;;7.57;6.97;;;10.90;99.90;;;;;;4933958;29;20024;-75
2022/05/04 01:40:56;;;;;;;7.47;6.78;;;10.90;99.90;;;;;;4935816;29;20024;-75
2022/05/04 01:43:21;;;;;;;8.18;6.60;;;10.80;99.90;;;;;;4936079;29;20107;-75
2022/05/04 01:45:48;;;;;;;7.30;6.55;;;10.80;99.90;;;;;;4934075;29;20027;-74
2022/05/04 01:48:13;;;;;;;7.57;6.88;;;10.80;99.90;;;;;;4936172;29;20145;-74
2022/05/04 01:50:39;;;;;;;8.00;7.22;;;10.80;99.90;;;;;;4935226;29;20119;-74
2022/05/04 01:53:05;;;;;;;7.43;6.72;;;10.80;99.90;;;;;;4934115;29;20035;-74
2022/05/04 01:55:33;;;;;;;7.50;6.85;;;10.70;99.90;;;;;;4934535;29;20027;-75
2022/05/04 01:58:00;;;;;;;8.80;7.03;;;10.70;99.90;;;;;;4935736;29;20079;-76
2022/05/04 02:00:26;;;;;;;8.07;7.32;;;10.70;99.90;;;;;;4936191;29;20058;-75
2022/05/04 02:02:52;;;;;;;8.02;7.32;;;10.70;99.90;;;;;;4936871;29;20062;-74
2022/05/04 02:05:18;;;;;;;8.75;7.18;;;10.70;99.90;;;;;;4932558;29;20454;-74
2022/05/04 02:07:44;;;;;;;9.38;6.75;;;10.80;99.90;;;;;;4933486;29;20103;-74
2022/05/04 02:10:11;;;;;;;8.30;7.43;;;10.80;99.90;;;;;;4935506;29;20040;-74
2022/05/04 02:12:37;;;;;;;8.18;7.38;;;10.80;99.90;;;;;;4928720;29;20028;-75
2022/05/04 02:15:06;;;;;;;8.40;7.53;;;10.80;99.90;;;;;;4934722;29;20024;-75
2022/05/04 02:17:32;;;;;;;8.05;7.35;;;10.80;99.90;;;;;;4933737;29;20032;-74
2022/05/04 02:19:57;;;;;;;17.27;8.55;;;10.90;99.90;;;;;;4934947;29;20034;-73
2022/05/04 02:22:23;;;;;;;8.27;6.55;;;10.90;99.90;;;;;;4937590;29;20456;-74
2022/05/04 02:24:49;;;;;;;8.18;7.47;;;11.00;99.90;;;;;;4939134;28;20032;-76
2022/05/04 02:27:14;;;;;;;7.72;7.03;;;11.00;99.90;;;;;;4933583;29;20537;-76
2022/05/04 02:29:40;;;;;;;8.27;6.45;;;11.00;99.90;;;;;;4931336;29;20114;-75
2022/05/04 02:32:06;;;;;;;8.55;7.18;;;11.00;99.90;;;;;;4934529;29;20043;-74
2022/05/04 02:34:32;;;;;;;6.88;6.28;;;11.00;99.90;;;;;;4933745;29;20031;-75
2022/05/04 02:39:41;;;;;;;8.00;7.00;;;11.00;99.90;;;;;;4934874;29;20074;-74
2022/05/04 02:42:07;;;;;;;8.70;6.72;;;11.00;99.90;;;;;;4934448;29;20106;-74
2022/05/04 02:44:33;;;;;;;7.57;6.72;;;11.10;99.90;;;;;;4934685;29;20396;-73
2022/05/04 02:46:58;;;;;;;6.88;6.38;;;11.10;99.90;;;;;;4935197;29;20028;-73
2022/05/04 02:49:23;;;;;;;8.23;6.85;;;11.10;99.90;;;;;;4932595;29;20031;-74
2022/05/04 02:51:49;;;;;;;7.53;6.75;;;11.10;99.90;;;;;;4933478;29;20038;-75
2022/05/04 02:54:14;;;;;;;8.35;6.68;;;11.20;99.90;;;;;;4934659;29;20035;-75
2022/05/04 02:56:40;;;;;;;8.23;7.43;;;11.20;99.90;;;;;;4934663;29;20587;-74
2022/05/04 02:59:06;;;;;;;8.23;7.43;;;11.20;99.90;;;;;;4935599;29;20082;-75
2022/05/04 03:04:15;;;;;;;7.82;7.13;;;11.20;99.90;;;;;;4934193;29;20485;-74
2022/05/04 03:06:42;;;;;;;8.13;7.28;;;11.20;99.90;;;;;;4935169;29;20059;-75
2022/05/04 03:09:11;;;;;;;7.30;6.60;;;11.20;99.90;;;;;;4929883;29;20453;-74
2022/05/04 03:11:56;;;;;;;9.38;7.93;;;11.20;99.90;;;;;;4934861;29;20035;-74
2022/05/04 03:14:28;;;;;;;8.20;7.43;;;11.20;99.90;;;;;;4935103;29;20032;-74
2022/05/04 03:16:55;;;;;;;8.07;7.07;;;11.20;99.90;;;;;;4935393;29;20079;-74
2022/05/04 03:19:22;;;;;;;8.52;6.85;;;11.30;99.90;;;;;;4932241;29;20042;-74
2022/05/04 03:21:48;;;;;;;8.32;7.47;;;11.30;99.90;;;;;;4934098;29;20093;-75
2022/05/04 03:24:14;;;;;;;7.75;6.95;;;11.30;99.90;;;;;;4935071;29;20036;-74
2022/05/04 03:26:39;;;;;;;7.80;6.93;;;11.30;99.90;;;;;;4933759;29;20453;-75
2022/05/04 03:29:05;;;;;;;8.15;7.10;;;11.30;99.90;;;;;;4933653;29;20058;-74
2022/05/04 03:31:32;;;;;;;8.68;7.00;;;11.30;99.90;;;;;;4932840;29;20038;-75
2022/05/04 03:33:57;;;;;;;7.20;6.50;;;11.20;99.90;;;;;;4934291;29;20079;-74
2022/05/04 03:36:23;;;;;;;7.47;6.78;;;11.30;99.90;;;;;;4933395;29;20024;-74
2022/05/04 03:38:48;;;;;;;8.10;7.40;;;11.30;99.90;;;;;;4934070;29;20039;-74
2022/05/04 03:41:15;;;;;;;8.00;7.20;;;11.20;99.90;;;;;;4934877;29;20031;-74
2022/05/04 03:43:40;;;;;;;7.65;6.72;;;11.30;99.90;;;;;;4932933;29;20051;-74
2022/05/04 03:46:13;;;;;;;12.18;8.35;;;11.20;99.90;;;;;;4933382;29;20515;-73
2022/05/04 03:48:38;;;;;;;7.40;6.68;;;11.20;99.90;;;;;;4933313;29;20058;-74
2022/05/04 03:51:05;;;;;;;8.60;7.78;;;11.30;99.90;;;;;;4932062;29;20067;-75
2022/05/04 03:53:30;;;;;;;7.90;7.13;;;11.30;99.90;;;;;;4933548;29;20083;-75
2022/05/04 03:55:56;;;;;;;8.75;7.75;;;11.40;99.90;;;;;;4932639;29;20443;-75
2022/05/04 03:58:21;;;;;;;6.90;6.20;;;11.30;99.90;;;;;;4934542;29;20031;-75
2022/05/04 04:00:47;;;;;;;10.25;7.28;;;11.40;99.90;;;;;;4931582;29;20403;-74
2022/05/04 04:03:12;;;;;;;8.10;7.30;;;11.40;99.90;;;;;;4931900;29;20023;-75
2022/05/04 04:05:38;;;;;;;8.07;7.47;;;11.40;99.90;;;;;;4934597;29;20051;-75
2022/05/04 04:08:03;;;;;;;8.82;7.70;;;11.40;99.90;;;;;;4934736;29;20028;-75
2022/05/04 04:10:29;;;;;;;9.05;7.28;;;11.40;99.90;;;;;;4927421;29;20044;-74
2022/05/04 04:12:54;;;;;;;8.50;7.50;;;11.50;99.90;;;;;;4932068;29;20030;-74
2022/05/04 04:15:20;;;;;;;11.10;8.05;;;11.50;99.90;;;;;;4931656;29;20505;-74
2022/05/04 04:17:47;;;;;;;11.30;7.95;;;11.60;99.90;;;;;;4933791;29;20031;-75
2022/05/04 04:22:57;;;;;;;7.72;6.90;;;11.60;99.90;;;;;;4930446;29;20038;-75
2022/05/04 04:25:22;;;;;;;11.27;8.80;;;11.50;99.90;;;;;;4934419;29;20024;-76
2022/05/04 04:27:48;;;;;;;14.32;8.85;;;11.60;99.90;;;;;;4932403;29;20020;-75
2022/05/04 04:30:14;;;;;;;16.20;10.15;;;11.60;99.90;;;;;;4934276;29;20107;-74
2022/05/04 04:32:39;;;;;;;17.02;10.20;;;11.60;99.90;;;;;;4932656;29;20111;-73
2022/05/04 04:35:05;;;;;;;10.80;9.48;;;11.60;99.90;;;;;;4933444;29;20107;-75
2022/05/04 04:37:31;;;;;;;10.50;9.50;;;11.60;99.90;;;;;;4931519;29;20030;-74
2022/05/04 04:39:56;;;;;;;10.40;9.27;;;11.70;99.90;;;;;;4930546;29;20036;-74
2022/05/04 04:42:22;;;;;;;13.55;9.25;;;11.90;99.90;;;;;;4931491;29;20032;-74
2022/05/04 04:44:47;;;;;;;14.75;9.95;;;12.00;99.90;;;;;;4930968;29;20015;-75
2022/05/04 04:47:13;;;;;;;12.35;10.32;;;11.90;99.90;;;;;;4937533;29;20115;-75
2022/05/04 04:49:38;;;;;;;12.70;9.05;;;11.90;99.90;;;;;;4932916;29;20027;-73
2022/05/04 04:52:04;;;;;;;16.08;9.63;;;11.90;99.90;;;;;;4932883;29;20071;-74
2022/05/04 04:54:29;;;;;;;13.02;9.00;;;12.00;99.90;;;;;;4932120;29;20060;-73
2022/05/04 04:56:55;;;;;;;19.83;10.05;;;12.10;99.90;;;;;;4933110;29;20059;-74
2022/05/04 04:59:20;;;;;;;12.88;9.70;;;12.10;99.90;;;;;;4931993;29;20020;-74
2022/05/04 05:01:46;;;;;;;14.38;10.43;;;12.20;99.90;;;;;;4932103;29;20448;-75
2022/05/04 05:04:11;;;;;;;15.73;9.15;;;12.20;99.90;;;;;;4934208;29;20519;-74
2022/05/04 05:06:37;;;;;;;11.52;8.85;;;12.20;99.90;;;;;;4931096;29;20051;-76
2022/05/04 05:09:02;;;;;;;11.18;9.18;;;12.20;99.90;;;;;;4933447;29;20437;-75
2022/05/04 05:11:28;;;;;;;12.75;9.02;;;12.20;99.90;;;;;;4931677;29;20042;-75
2022/05/04 05:16:38;;;;;;;11.50;9.25;;;12.30;99.90;;;;;;4933815;29;20034;-74
2022/05/04 05:19:03;;;;;;;9.05;8.18;;;12.40;99.90;;;;;;4932431;29;20028;-75
2022/05/04 05:21:29;;;;;;;9.70;8.77;;;12.60;99.90;;;;;;4934136;29;20027;-74
2022/05/04 05:23:54;;;;;;;8.50;7.55;;;12.70;99.90;;;;;;4929901;29;20059;-75
2022/05/04 05:26:20;;;;;;;10.48;7.93;;;12.60;99.90;;;;;;4933801;29;20404;-75
2022/05/04 05:28:47;;;;;;;9.15;8.18;;;12.50;99.90;;;;;;4933520;29;20039;-75
2022/05/04 05:31:13;;;;;;;9.55;8.55;;;12.50;99.90;;;;;;4937010;29;20094;-75
2022/05/04 05:33:39;;;;;;;11.75;7.63;;;12.50;99.90;;;;;;4933350;29;20366;-74
2022/05/04 05:36:05;;;;;;;10.02;9.00;;;12.40;99.90;;;;;;4934706;29;20035;-75
2022/05/04 05:38:31;;;;;;;8.77;7.93;;;12.40;99.90;;;;;;4934532;29;20128;-75
2022/05/04 05:40:56;;;;;;;9.52;8.52;;;12.50;99.90;;;;;;4936715;29;20544;-75
2022/05/04 05:43:22;;;;;;;10.50;7.53;;;12.60;99.90;;;;;;4931324;29;20028;-75
2022/05/04 05:45:47;;;;;;;8.18;7.38;;;12.80;99.90;;;;;;4935549;29;20028;-75
2022/05/04 05:48:13;;;;;;;8.57;7.70;;;13.00;99.90;;;;;;4934817;29;20036;-74
2022/05/04 05:50:39;;;;;;;10.77;9.02;;;13.10;99.90;;;;;;4933612;29;20621;-75
2022/05/04 05:53:05;;;;;;;8.40;7.32;;;13.30;99.90;;;;;;4933741;29;20496;-73
2022/05/04 05:55:30;;;;;;;8.98;7.65;;;13.50;99.90;;;;;;4936795;29;20028;-75
2022/05/04 05:57:56;;;;;;;8.38;7.50;;;13.40;99.90;;;;;;4934227;29;20054;-74
2022/05/04 06:00:22;;;;;;;10.73;8.50;;;13.40;99.90;;;;;;4936355;29;20023;-74
2022/05/04 06:02:47;;;;;;;8.77;7.70;;;13.60;99.90;;;;;;4935714;29;20090;-74
2022/05/04 06:05:13;;;;;;;8.90;8.00;;;13.50;99.90;;;;;;4935159;29;20040;-76
2022/05/04 06:07:39;;;;;;;10.10;7.18;;;13.70;99.90;;;;;;4934416;29;20031;-74
2022/05/04 06:10:05;;;;;;;9.88;7.22;;;13.70;99.90;;;;;;4935241;29;20032;-75
2022/05/04 06:12:31;;;;;;;9.07;7.65;;;13.50;99.90;;;;;;4928301;29;20059;-75
2022/05/04 06:14:57;;;;;;;9.70;7.43;;;13.60;99.90;;;;;;4934148;29;20082;-75
2022/05/04 06:17:22;;;;;;;13.75;7.80;;;13.90;99.90;;;;;;4931154;29;20028;-75
2022/05/04 06:19:48;;;;;;;8.05;7.25;;;13.80;99.90;;;;;;4934856;29;20030;-76
2022/05/04 06:22:14;;;;;;;8.02;7.30;;;13.90;99.90;;;;;;4934630;29;20107;-76
2022/05/04 06:24:39;;;;;;;8.07;7.25;;;14.10;99.90;;;;;;4936085;29;20438;-74
2022/05/04 06:27:05;;;;;;;10.10;8.40;;;14.20;99.90;;;;;;4933439;29;20038;-75
2022/05/04 06:35:04;;;;;;;8.90;8.00;;;13.70;99.90;;;;;;4932737;29;20110;-75
2022/05/04 06:37:30;;;;;;;7.93;7.05;;;13.70;99.90;;;;;;4932952;29;20099;-75
2022/05/04 06:39:55;;;;;;;8.50;7.80;;;13.90;99.90;;;;;;4934938;29;20449;-75
2022/05/04 06:42:21;;;;;;;13.05;8.15;;;14.10;99.90;;;;;;4935111;29;20036;-75
2022/05/04 06:44:46;;;;;;;8.27;7.47;;;14.30;99.90;;;;;;4935959;29;20061;-75
2022/05/04 06:47:12;;;;;;;8.40;7.60;;;14.30;99.90;;;;;;4934830;29;20123;-77
2022/05/04 06:49:38;;;;;;;8.98;8.10;;;14.10;99.90;;;;;;4934087;29;20039;-76
2022/05/04 06:52:04;;;;;;;9.55;8.65;;;14.10;99.90;;;;;;4933697;29;20423;-74
2022/05/04 06:54:29;;;;;;;9.48;7.70;;;14.30;99.90;;;;;;4933988;29;20039;-75
2022/05/04 06:56:56;;;;;;;9.82;7.75;;;14.30;99.90;;;;;;4935200;29;20049;-74
2022/05/04 06:59:21;;;;;;;9.57;8.27;;;14.20;99.90;;;;;;4931247;29;20050;-75
2022/05/04 07:01:47;;;;;;;15.23;9.13;;;14.30;99.90;;;;;;4935389;29;20076;-75
2022/05/04 07:04:13;;;;;;;13.23;8.95;;;14.50;99.90;;;;;;4933124;29;20504;-78
2022/05/04 07:06:38;;;;;;;11.75;8.30;;;14.30;99.90;;;;;;4929554;29;20032;-75
2022/05/04 07:09:03;;;;;;;11.27;8.80;;;14.30;99.90;;;;;;4931267;29;20035;-75
2022/05/04 07:11:30;;;;;;;11.85;8.43;;;14.70;99.90;;;;;;4928927;29;20161;-75
2022/05/04 07:13:55;;;;;;;14.82;9.27;;;14.70;99.90;;;;;;4935240;29;20392;-74
2022/05/04 07:16:21;;;;;;;11.07;8.95;;;14.70;99.90;;;;;;4931085;29;20083;-75
2022/05/04 07:18:46;;;;;;;11.52;8.45;;;14.90;99.90;;;;;;4932467;29;20423;-76
2022/05/04 07:21:12;;;;;;;12.88;8.32;;;15.10;99.90;;;;;;4933258;29;20063;-76
2022/05/04 07:23:37;;;;;;;8.77;7.88;;;15.40;99.90;;;;;;4932921;29;20493;-75
2022/05/04 07:26:03;;;;;;;12.45;8.00;;;15.60;99.90;;;;;;4934857;29;20047;-75
2022/05/04 07:28:28;;;;;;;10.43;7.82;;;15.90;99.90;;;;;;4932549;29;20097;-76
2022/05/04 07:30:54;;;;;;;12.57;7.45;;;15.70;99.90;;;;;;4933240;29;20492;-75
2022/05/04 07:33:19;;;;;;;9.10;7.78;;;15.90;99.90;;;;;;4934884;29;20440;-75
2022/05/04 07:35:45;;;;;;;9.43;8.00;;;16.00;99.90;;;;;;4932840;29;20028;-77
2022/05/04 07:38:10;;;;;;;8.93;7.20;;;16.00;99.90;;;;;;4933225;29;20023;-75
2022/05/04 07:43:20;;;;;;;9.30;7.53;;;16.60;99.90;;;;;;4932531;29;20427;-76
2022/05/04 07:45:45;;;;;;;8.95;7.82;;;16.90;99.90;;;;;;4933218;29;20028;-76
2022/05/04 07:48:11;;;;;;;7.57;6.90;;;16.90;99.90;;;;;;4932503;29;20036;-77
2022/05/04 07:50:37;;;;;;;7.88;7.07;;;17.00;99.90;;;;;;4930997;29;20064;-75
2022/05/04 07:53:03;;;;;;;8.00;7.13;;;16.50;99.90;;;;;;4932252;29;20141;-75
2022/05/04 07:55:30;;;;;;;10.52;7.47;;;16.10;99.90;;;;;;4930084;29;20027;-76
2022/05/04 07:57:56;;;;;;;12.65;8.00;;;15.80;99.90;;;;;;4930749;29;20023;-77
2022/05/04 08:05:49;;;;;;;8.85;6.28;;;17.10;99.90;;;;;;4939995;29;20554;-76
2022/05/04 08:08:15;;;;;;;11.23;5.85;;;17.50;99.90;;;;;;4935413;28;20040;-76
2022/05/04 08:10:41;;;;;;;6.25;4.85;;;17.10;99.90;;;;;;4932559;29;20036;-75
2022/05/04 08:13:06;;;;;;;5.25;4.70;;;17.20;99.90;;;;;;4932832;29;20039;-76
2022/05/04 08:15:32;;;;;;;7.10;4.22;;;17.30;99.90;;;;;;4932782;29;20465;-76
2022/05/04 08:17:58;;;;;;;6.55;4.53;;;17.00;99.90;;;;;;4932859;29;20062;-76
2022/05/04 08:20:25;;;;;;;3.63;3.15;;;17.00;99.90;;;;;;4927997;29;20035;-75
2022/05/04 08:22:51;;;;;;;2.35;2.00;;;17.00;99.90;;;;;;4934250;29;20027;-75
2022/05/04 08:25:17;;;;;;;3.47;2.90;;;17.00;99.90;;;;;;4934422;29;20138;-76
2022/05/04 08:27:44;;;;;;;2.67;2.45;;;17.00;99.90;;;;;;4927299;29;20020;-76
2022/05/04 08:30:09;;;;;;;2.85;2.50;;;17.20;99.90;;;;;;4933385;29;20027;-74
2022/05/04 08:32:35;;;;;;;2.83;2.25;;;17.20;99.90;;;;;;4932994;29;20122;-75
2022/05/04 08:35:01;;;;;;;3.60;2.35;;;17.30;99.90;;;;;;4932028;29;20031;-74
2022/05/04 08:37:27;;;;;;;4.10;2.80;;;17.30;99.90;;;;;;4929310;29;20040;-73
2022/05/04 08:39:53;;;;;;;3.75;2.67;;;17.10;99.90;;;;;;4931019;29;20547;-74
2022/05/04 08:42:19;;;;;;;3.75;2.53;;;17.00;99.90;;;;;;4931082;29;20031;-74
2022/05/04 08:44:48;;;;;;;8.80;2.95;;;17.00;99.90;;;;;;4930651;29;20024;-75
2022/05/04 08:47:15;;;;;;;3.00;2.58;;;16.90;99.90;;;;;;4933099;29;20431;-74
2022/05/04 08:49:42;;;;;;;3.53;3.22;;;16.70;99.90;;;;;;4931934;29;20102;-74
2022/05/04 08:52:09;;;;;;;4.65;2.80;;;16.60;99.90;;;;;;4932808;29;20070;-76
2022/05/04 08:54:34;;;;;;;4.22;3.53;;;16.60;99.90;;;;;;4931768;29;20092;-73
2022/05/04 08:57:00;;;;;;;4.28;3.17;;;16.80;99.90;;;;;;4932282;29;20102;-73
2022/05/04 08:59:28;;;;;;;3.28;3.03;;;16.80;99.90;;;;;;4932358;29;20110;-76
2022/05/04 09:01:53;;;;;;;4.10;3.40;;;16.70;99.90;;;;;;4931353;29;20087;-73
2022/05/04 09:04:19;;;;;;;5.15;3.65;;;16.50;99.90;;;;;;4937587;29;20027;-74
2022/05/04 09:06:45;;;;;;;3.88;3.00;;;16.40;99.90;;;;;;4934269;29;20098;-75
2022/05/04 09:09:11;;;;;;;3.90;3.50;;;16.40;99.90;;;;;;4934517;29;20046;-74
2022/05/04 09:11:42;;;;;;;4.30;3.35;;;16.40;99.90;;;;;;4929208;29;20028;-75
2022/05/04 09:14:20;;;;;;;4.13;3.60;;;16.20;99.90;;;;;;4935132;29;20047;-73
2022/05/04 09:16:48;;;;;;;4.82;4.07;;;16.10;99.90;;;;;;4937204;29;20082;-74
2022/05/04 09:19:17;;;;;;;6.07;3.80;;;16.10;99.90;;;;;;4929108;29;20035;-74
2022/05/04 09:21:45;;;;;;;6.15;3.70;;;16.00;99.90;;;;;;4935810;29;20388;-73
2022/05/04 09:24:14;;;;;;;4.47;3.88;;;16.00;99.90;;;;;;4933936;29;20461;-73
2022/05/04 09:26:44;;;;;;;4.40;4.00;;;15.90;99.90;;;;;;4935471;29;20031;-74
2022/05/04 09:29:12;;;;;;;4.10;3.70;;;15.80;99.90;;;;;;4933941;29;20336;-73
2022/05/04 09:31:41;;;;;;;4.63;4.22;;;15.60;99.90;;;;;;4936633;29;20031;-74
2022/05/04 09:34:08;;;;;;;6.97;4.60;;;15.70;99.90;;;;;;4937364;29;20462;-73
2022/05/04 09:44:53;;;;;;;5.32;4.80;;;15.80;99.90;;;;;;4936864;29;20038;-73
2022/05/04 09:45:08;;;;;;;7.45;5.45;;;16.00;99.90;;;;;;4934490;29;20032;-73
2022/05/04 09:47:37;;;;;;;7.57;5.43;;;16.00;99.90;;;;;;4935679;29;20110;-73
2022/05/04 09:50:03;;;;;;;10.73;5.40;;;16.00;99.90;;;;;;4935580;29;20039;-74
2022/05/04 09:52:40;;;;;;;6.68;6.13;;;16.20;99.90;;;;;;4934310;29;20098;-73
2022/05/04 09:55:19;;;;;;;6.45;5.85;;;16.40;99.90;;;;;;4934467;29;20024;-74
2022/05/04 09:57:46;;;;;;;7.00;6.05;;;16.60;99.90;;;;;;4930843;29;20024;-74
2022/05/04 10:00:14;;;;;;;7.57;6.88;;;16.80;99.90;;;;;;4935717;29;20055;-74
2022/05/04 10:02:40;;;;;;;7.60;6.45;;;17.00;99.90;;;;;;4936948;29;20028;-74
2022/05/04 10:05:07;;;;;;;7.95;7.15;;;17.50;99.90;;;;;;4934783;29;20023;-76
2022/05/04 10:07:36;;;;;;;7.72;7.05;;;17.70;99.90;;;;;;4933452;29;20695;-74
2022/05/04 10:10:02;;;;;;;8.52;7.72;;;17.20;99.90;;;;;;4939360;29;20032;-74
2022/05/04 10:12:29;;;;;;;8.65;7.95;;;17.30;99.90;;;;;;4930367;29;20086;-75
2022/05/04 10:14:58;;;;;;;9.30;8.48;;;17.30;99.90;;;;;;4933942;29;20024;-75
2022/05/04 10:17:26;;;;;;;8.45;7.65;;;17.20;99.90;;;;;;4934024;29;20484;-76
2022/05/04 10:20:04;;;;;;;9.10;7.65;;;17.40;99.90;;;;;;4933598;29;20032;-76
2022/05/04 10:22:36;;;;;;;6.90;6.30;;;17.90;99.90;;;;;;4934026;29;20046;-74
2022/05/04 10:25:04;;;;;;;8.15;7.45;;;18.40;99.90;;;;;;4933960;29;20036;-74
2022/05/04 10:27:29;;;;;;;7.88;7.07;;;18.70;99.90;;;;;;4934980;29;20568;-75
2022/05/04 10:32:50;;;;;;;7.70;6.88;;;18.60;99.90;;;;;;4932793;29;20054;-76
2022/05/04 10:35:21;;;;;;;9.43;7.60;;;18.00;99.90;;;;;;4933432;29;20035;-76
2022/05/04 10:37:57;;;;;;;7.32;6.72;;;17.70;99.90;;;;;;4935167;29;20167;-75
2022/05/04 10:40:24;;;;;;;9.32;7.60;;;17.80;99.90;;;;;;4936241;29;20028;-74
2022/05/04 10:42:56;;;;;;;7.22;6.45;;;18.20;99.90;;;;;;4931950;29;20477;-76
2022/05/04 10:45:24;;;;;;;6.18;5.65;;;18.40;99.90;;;;;;4936149;29;20118;-76
2022/05/04 10:47:50;;;;;;;6.57;6.05;;;18.80;99.90;;;;;;4934341;29;20028;-76
2022/05/04 10:50:19;;;;;;;7.30;6.60;;;18.90;99.90;;;;;;4935938;29;20032;-74
2022/05/04 10:52:47;;;;;;;6.75;5.60;;;19.50;99.90;;;;;;4932040;29;20039;-76
2022/05/04 10:55:14;;;;;;;8.00;6.38;;;19.60;99.90;;;;;;4930032;29;20133;-75
2022/05/04 10:57:42;;;;;;;6.82;5.47;;;19.50;99.90;;;;;;4933094;29;20031;-75
2022/05/04 11:00:10;;;;;;;8.70;6.13;;;19.60;99.90;;;;;;4933270;29;20031;-73
2022/05/04 11:02:42;;;;;;;6.13;5.53;;;19.40;99.90;;;;;;4932365;29;20027;-76
2022/05/04 11:05:12;;;;;;;6.70;6.13;;;20.40;99.90;;;;;;4933092;29;20073;-75
2022/05/04 11:07:38;;;;;;;5.32;4.80;;;20.40;99.90;;;;;;4934012;29;20032;-75
2022/05/04 11:10:04;;;;;;;4.63;4.22;;;20.10;99.90;;;;;;4931376;29;20035;-75
2022/05/04 11:12:30;;;;;;;4.57;4.00;;;20.30;99.90;;;;;;4934729;29;20110;-74
2022/05/04 11:14:55;;;;;;;6.05;3.38;;;20.10;99.90;;;;;;4935040;29;20083;-76
2022/05/04 11:17:21;;;;;;;7.63;3.92;;;20.10;99.90;;;;;;4935731;29;20024;-77
2022/05/04 11:19:48;;;;;;;4.75;3.75;;;20.20;99.90;;;;;;4932300;29;20079;-75
2022/05/04 11:22:18;;;;;;;5.28;3.92;;;20.60;99.90;;;;;;4934795;29;20058;-74
2022/05/04 11:24:43;;;;;;;3.05;2.85;;;20.20;99.90;;;;;;4932939;29;20043;-75
2022/05/04 11:27:11;;;;;;;5.50;3.83;;;20.70;99.90;;;;;;4934858;29;20395;-77
2022/05/04 11:29:37;;;;;;;3.17;2.88;;;20.90;99.90;;;;;;4933832;29;20023;-74
2022/05/04 11:32:05;;;;;;;4.78;3.42;;;21.90;98.90;;;;;;4931939;29;20039;-75
2022/05/04 11:34:36;;;;;;;4.15;3.42;;;22.20;97.70;;;;;;4935085;29;20047;-75
2022/05/04 11:37:07;;;;;;;4.90;3.65;;;21.90;98.60;;;;;;4934432;29;20079;-74
2022/05/04 11:39:33;;;;;;;3.55;3.25;;;21.40;98.90;;;;;;4934591;29;20039;-75
2022/05/04 11:42:00;;;;;;;4.65;4.25;;;21.10;99.40;;;;;;4934599;29;20036;-76
2022/05/04 11:44:28;;;;;;;4.68;3.33;;;21.00;98.40;;;;;;4932723;29;20024;-76
2022/05/04 11:46:55;;;;;;;3.95;3.55;;;20.80;98.80;;;;;;4928362;29;20028;-75
2022/05/04 11:49:22;;;;;;;4.13;3.42;;;21.20;98.20;;;;;;4933240;29;20027;-75
2022/05/04 11:51:49;;;;;;;3.78;3.30;;;21.50;97.70;;;;;;4932169;29;20059;-77
2022/05/04 11:54:15;;;;;;;5.50;2.88;;;21.70;97.70;;;;;;4930797;29;21785;-76
2022/05/04 11:56:41;;;;;;;3.78;3.47;;;21.70;97.10;;;;;;4929016;29;20034;-76
2022/05/04 11:59:09;;;;;;;5.43;3.70;;;21.20;97.60;;;;;;4934845;29;20028;-77
2022/05/04 12:01:37;;;;;;;4.47;3.58;;;20.60;98.10;;;;;;4932187;29;20436;-75
2022/05/04 12:04:04;;;;;;;4.45;3.03;;;20.30;99.10;;;;;;4927696;29;20070;-74
2022/05/04 12:06:30;;;;;;;5.15;3.15;;;20.60;99.20;;;;;;4921396;29;20023;-76
2022/05/04 12:08:56;;;;;;;3.38;3.00;;;21.20;97.90;;;;;;4933768;29;20101;-77
2022/05/04 12:11:23;;;;;;;3.90;3.55;;;21.60;97.10;;;;;;4933315;29;20035;-77
2022/05/04 12:13:50;;;;;;;3.92;3.22;;;21.50;97.00;;;;;;4934342;29;20024;-75
2022/05/04 12:16:16;;;;;;;3.78;3.47;;;21.30;97.30;;;;;;4933783;29;20444;-74
2022/05/04 12:18:43;;;;;;;5.10;3.50;;;21.10;97.30;;;;;;4934260;29;20027;-76
2022/05/04 12:21:10;;;;;;;7.15;3.85;;;20.80;97.90;;;;;;4932858;29;20051;-76
2022/05/04 12:23:41;;;;;;;3.78;3.47;;;20.90;98.20;;;;;;4934616;29;20086;-76
2022/05/04 12:26:10;;;;;;;4.70;3.30;;;21.30;97.90;;;;;;4927728;29;20027;-76
2022/05/04 12:28:36;;;;;;;4.55;4.15;;;21.50;97.10;;;;;;4934162;29;20078;-75
2022/05/04 12:33:50;;;;;;;3.55;3.30;;;21.40;96.40;;;;;;4932255;29;20031;-77
2022/05/04 12:36:18;;;;;;;3.53;3.25;;;21.80;95.70;;;;;;4931793;29;20453;-77
2022/05/04 12:38:48;;;;;;;4.45;2.90;;;21.70;94.90;;;;;;4929800;29;20444;-77
2022/05/04 12:41:22;;;;;;;4.28;3.08;;;21.50;95.10;;;;;;4935909;29;20058;-75
2022/05/04 12:43:49;;;;;;;3.83;2.67;;;21.20;95.10;;;;;;4936871;29;20035;-76
2022/05/04 12:46:17;;;;;;;2.65;2.38;;;21.00;95.10;;;;;;4934445;29;20028;-77
2022/05/04 12:48:44;;;;;;;3.50;2.10;;;20.90;95.60;;;;;;4934386;29;20043;-76
2022/05/04 12:51:11;;;;;;;3.25;2.17;;;20.90;95.40;;;;;;4937733;29;20394;-77
2022/05/04 12:53:40;;;;;;;2.20;2.00;;;21.00;94.90;;;;;;4940548;29;20403;-76
2022/05/04 12:58:52;;;;;;;2.60;2.22;;;21.80;93.90;;;;;;4937465;29;20050;-77
2022/05/04 13:01:22;;;;;;;3.90;2.50;;;21.90;93.70;;;;;;4935218;29;20039;-76
2022/05/04 13:03:47;;;;;;;3.42;2.60;;;21.70;92.90;;;;;;4936547;29;20028;-77
2022/05/04 13:06:13;;;;;;;4.47;2.63;;;21.60;92.90;;;;;;4936683;29;20354;-76
2022/05/04 13:08:38;;;;;;;2.25;2.15;;;21.30;92.90;;;;;;4937660;29;20558;-76
2022/05/04 13:11:05;;;;;;;2.03;1.80;;;21.50;93.20;;;;;;4934601;29;20040;-77
2022/05/04 13:13:30;;;;;;;2.20;2.00;;;21.80;92.70;;;;;;4936490;29;20031;-76
2022/05/04 13:15:56;;;;;;;4.50;1.90;;;22.00;92.50;;;;;;4932213;29;20058;-78
2022/05/04 13:18:22;;;;;;;3.00;2.50;;;22.10;92.90;;;;;;4937070;29;20032;-78
2022/05/04 13:20:49;;;;;;;2.33;2.13;;;21.70;94.50;;;;;;4934268;29;20032;-77